sensor_id;sensor_type;location;lat;lon;timestamp;P1;durP1;ratioP1;P2;durP2;ratioP2
51814;SDS011;37874;53.158;6.766;2023-05-07T00:02:02;6.38;;;4.50;;
51814;SDS011;37874;53.158;6.766;2023-05-07T00:04:28;5.32;;;4.22;;
51814;SDS011;37874;53.158;6.766;2023-05-07T00:07:00;5.43;;;4.18;;
51814;SDS011;37874;53.158;6.766;2023-05-07T00:09:26;6.93;;;5.00;;
51814;SDS011;37874;53.158;6.766;2023-05-07T00:11:52;5.95;;;4.80;;
51814;SDS011;37874;53.158;6.766;2023-05-07T00:14:17;5.30;;;4.00;;
51814;SDS011;37874;53.158;6.766;2023-05-07T00:16:43;5.40;;;4.20;;
51814;SDS011;37874;53.158;6.766;2023-05-07T00:19:09;5.35;;;4.28;;
51814;SDS011;37874;53.158;6.766;2023-05-07T00:21:34;5.65;;;4.20;;
51814;SDS011;37874;53.158;6.766;2023-05-07T00:24:00;6.20;;;4.57;;
51814;SDS011;37874;53.158;6.766;2023-05-07T00:26:25;5.30;;;4.18;;
51814;SDS011;37874;53.158;6.766;2023-05-07T00:28:51;5.93;;;4.38;;
51814;SDS011;37874;53.158;6.766;2023-05-07T00:31:17;5.75;;;4.30;;
51814;SDS011;37874;53.158;6.766;2023-05-07T00:33:42;5.82;;;4.20;;
51814;SDS011;37874;53.158;6.766;2023-05-07T00:36:08;5.75;;;4.57;;
51814;SDS011;37874;53.158;6.766;2023-05-07T00:38:33;5.60;;;4.43;;
51814;SDS011;37874;53.158;6.766;2023-05-07T00:40:59;6.43;;;4.20;;
51814;SDS011;37874;53.158;6.766;2023-05-07T00:43:25;6.95;;;4.32;;
51814;SDS011;37874;53.158;6.766;2023-05-07T00:45:50;5.43;;;4.18;;
51814;SDS011;37874;53.158;6.766;2023-05-07T00:48:16;5.18;;;4.05;;
51814;SDS011;37874;53.158;6.766;2023-05-07T00:50:43;5.93;;;4.50;;
51814;SDS011;37874;53.158;6.766;2023-05-07T00:53:09;5.75;;;4.30;;
51814;SDS011;37874;53.158;6.766;2023-05-07T00:55:35;5.97;;;4.70;;
51814;SDS011;37874;53.158;6.766;2023-05-07T00:58:01;7.38;;;4.25;;
51814;SDS011;37874;53.158;6.766;2023-05-07T01:00:27;5.80;;;4.40;;
51814;SDS011;37874;53.158;6.766;2023-05-07T01:02:53;6.68;;;4.32;;
51814;SDS011;37874;53.158;6.766;2023-05-07T01:05:19;5.10;;;4.30;;
51814;SDS011;37874;53.158;6.766;2023-05-07T01:07:45;5.60;;;4.20;;
51814;SDS011;37874;53.158;6.766;2023-05-07T01:10:12;5.63;;;4.43;;
51814;SDS011;37874;53.158;6.766;2023-05-07T01:12:38;5.13;;;4.03;;
51814;SDS011;37874;53.158;6.766;2023-05-07T01:15:05;6.47;;;4.65;;
51814;SDS011;37874;53.158;6.766;2023-05-07T01:17:33;6.53;;;4.55;;
51814;SDS011;37874;53.158;6.766;2023-05-07T01:20:04;7.18;;;3.97;;
51814;SDS011;37874;53.158;6.766;2023-05-07T01:22:34;5.50;;;4.50;;
51814;SDS011;37874;53.158;6.766;2023-05-07T01:25:04;6.43;;;4.28;;
51814;SDS011;37874;53.158;6.766;2023-05-07T01:27:31;5.72;;;4.28;;
51814;SDS011;37874;53.158;6.766;2023-05-07T01:29:58;5.18;;;4.00;;
51814;SDS011;37874;53.158;6.766;2023-05-07T01:35:11;5.88;;;4.30;;
51814;SDS011;37874;53.158;6.766;2023-05-07T01:37:40;6.20;;;4.00;;
51814;SDS011;37874;53.158;6.766;2023-05-07T01:40:07;6.82;;;4.45;;
51814;SDS011;37874;53.158;6.766;2023-05-07T01:42:33;4.82;;;4.10;;
51814;SDS011;37874;53.158;6.766;2023-05-07T01:44:59;5.65;;;4.00;;
51814;SDS011;37874;53.158;6.766;2023-05-07T01:47:25;5.82;;;4.47;;
51814;SDS011;37874;53.158;6.766;2023-05-07T01:49:51;5.18;;;3.75;;
51814;SDS011;37874;53.158;6.766;2023-05-07T01:52:17;6.03;;;4.03;;
51814;SDS011;37874;53.158;6.766;2023-05-07T01:54:43;5.82;;;4.30;;
51814;SDS011;37874;53.158;6.766;2023-05-07T01:57:08;5.90;;;4.38;;
51814;SDS011;37874;53.158;6.766;2023-05-07T01:59:34;6.35;;;4.10;;
51814;SDS011;37874;53.158;6.766;2023-05-07T02:01:59;5.15;;;3.75;;
51814;SDS011;37874;53.158;6.766;2023-05-07T02:04:25;6.45;;;4.05;;
51814;SDS011;37874;53.158;6.766;2023-05-07T02:06:51;5.70;;;4.03;;
51814;SDS011;37874;53.158;6.766;2023-05-07T02:09:17;5.93;;;4.18;;
51814;SDS011;37874;53.158;6.766;2023-05-07T02:11:43;6.28;;;4.10;;
51814;SDS011;37874;53.158;6.766;2023-05-07T02:14:09;6.03;;;4.30;;
51814;SDS011;37874;53.158;6.766;2023-05-07T02:16:35;5.53;;;4.00;;
51814;SDS011;37874;53.158;6.766;2023-05-07T02:19:01;5.75;;;4.43;;
51814;SDS011;37874;53.158;6.766;2023-05-07T02:21:27;6.07;;;3.90;;
51814;SDS011;37874;53.158;6.766;2023-05-07T02:23:53;5.28;;;4.28;;
51814;SDS011;37874;53.158;6.766;2023-05-07T02:26:19;5.22;;;4.10;;
51814;SDS011;37874;53.158;6.766;2023-05-07T02:28:44;5.38;;;4.25;;
51814;SDS011;37874;53.158;6.766;2023-05-07T02:31:10;5.97;;;4.20;;
51814;SDS011;37874;53.158;6.766;2023-05-07T02:33:35;5.82;;;4.05;;
51814;SDS011;37874;53.158;6.766;2023-05-07T02:36:08;5.07;;;3.88;;
51814;SDS011;37874;53.158;6.766;2023-05-07T02:38:34;6.15;;;4.40;;
51814;SDS011;37874;53.158;6.766;2023-05-07T02:41:00;6.35;;;4.63;;
51814;SDS011;37874;53.158;6.766;2023-05-07T02:43:26;6.22;;;4.25;;
51814;SDS011;37874;53.158;6.766;2023-05-07T02:46:07;4.97;;;3.90;;
51814;SDS011;37874;53.158;6.766;2023-05-07T02:48:34;5.97;;;4.47;;
51814;SDS011;37874;53.158;6.766;2023-05-07T02:51:00;5.85;;;4.32;;
51814;SDS011;37874;53.158;6.766;2023-05-07T02:53:26;5.78;;;4.47;;
51814;SDS011;37874;53.158;6.766;2023-05-07T02:55:55;5.05;;;4.15;;
51814;SDS011;37874;53.158;6.766;2023-05-07T02:58:21;6.43;;;3.92;;
51814;SDS011;37874;53.158;6.766;2023-05-07T03:00:47;6.28;;;4.13;;
51814;SDS011;37874;53.158;6.766;2023-05-07T03:03:13;5.07;;;3.63;;
51814;SDS011;37874;53.158;6.766;2023-05-07T03:05:39;5.75;;;4.18;;
51814;SDS011;37874;53.158;6.766;2023-05-07T03:08:05;5.60;;;4.05;;
51814;SDS011;37874;53.158;6.766;2023-05-07T03:10:30;6.13;;;4.13;;
51814;SDS011;37874;53.158;6.766;2023-05-07T03:12:56;5.18;;;3.80;;
51814;SDS011;37874;53.158;6.766;2023-05-07T03:15:21;5.90;;;4.38;;
51814;SDS011;37874;53.158;6.766;2023-05-07T03:17:47;4.95;;;3.90;;
51814;SDS011;37874;53.158;6.766;2023-05-07T03:20:13;4.53;;;3.65;;
51814;SDS011;37874;53.158;6.766;2023-05-07T03:22:39;5.85;;;4.20;;
51814;SDS011;37874;53.158;6.766;2023-05-07T03:25:05;5.72;;;3.95;;
51814;SDS011;37874;53.158;6.766;2023-05-07T03:27:31;5.72;;;4.40;;
51814;SDS011;37874;53.158;6.766;2023-05-07T03:29:57;6.28;;;4.53;;
51814;SDS011;37874;53.158;6.766;2023-05-07T03:32:22;5.85;;;3.70;;
51814;SDS011;37874;53.158;6.766;2023-05-07T03:34:48;5.80;;;4.15;;
51814;SDS011;37874;53.158;6.766;2023-05-07T03:37:13;5.72;;;4.05;;
51814;SDS011;37874;53.158;6.766;2023-05-07T03:39:39;5.32;;;4.07;;
51814;SDS011;37874;53.158;6.766;2023-05-07T03:42:05;5.38;;;3.95;;
51814;SDS011;37874;53.158;6.766;2023-05-07T03:44:30;6.35;;;4.07;;
51814;SDS011;37874;53.158;6.766;2023-05-07T03:46:56;5.05;;;3.97;;
51814;SDS011;37874;53.158;6.766;2023-05-07T03:49:21;5.38;;;4.05;;
51814;SDS011;37874;53.158;6.766;2023-05-07T03:51:47;5.35;;;4.03;;
51814;SDS011;37874;53.158;6.766;2023-05-07T03:54:13;5.22;;;4.00;;
51814;SDS011;37874;53.158;6.766;2023-05-07T03:56:38;5.45;;;3.78;;
51814;SDS011;37874;53.158;6.766;2023-05-07T03:59:04;4.95;;;3.80;;
51814;SDS011;37874;53.158;6.766;2023-05-07T04:01:30;6.65;;;4.30;;
51814;SDS011;37874;53.158;6.766;2023-05-07T04:03:55;5.53;;;4.10;;
51814;SDS011;37874;53.158;6.766;2023-05-07T04:06:21;5.80;;;4.43;;
51814;SDS011;37874;53.158;6.766;2023-05-07T04:08:47;5.15;;;3.65;;
51814;SDS011;37874;53.158;6.766;2023-05-07T04:11:12;4.97;;;3.97;;
51814;SDS011;37874;53.158;6.766;2023-05-07T04:13:38;6.50;;;4.43;;
51814;SDS011;37874;53.158;6.766;2023-05-07T04:16:04;5.35;;;3.80;;
51814;SDS011;37874;53.158;6.766;2023-05-07T04:18:30;5.60;;;4.00;;
51814;SDS011;37874;53.158;6.766;2023-05-07T04:20:56;5.95;;;3.80;;
51814;SDS011;37874;53.158;6.766;2023-05-07T04:23:22;5.75;;;4.35;;
51814;SDS011;37874;53.158;6.766;2023-05-07T04:25:47;6.95;;;4.10;;
51814;SDS011;37874;53.158;6.766;2023-05-07T04:28:13;4.53;;;3.50;;
51814;SDS011;37874;53.158;6.766;2023-05-07T04:30:38;6.07;;;4.20;;
51814;SDS011;37874;53.158;6.766;2023-05-07T04:33:06;5.55;;;4.18;;
51814;SDS011;37874;53.158;6.766;2023-05-07T04:35:31;5.47;;;4.15;;
51814;SDS011;37874;53.158;6.766;2023-05-07T04:37:57;5.03;;;4.07;;
51814;SDS011;37874;53.158;6.766;2023-05-07T04:40:23;5.20;;;3.90;;
51814;SDS011;37874;53.158;6.766;2023-05-07T04:42:48;5.13;;;3.90;;
51814;SDS011;37874;53.158;6.766;2023-05-07T04:45:14;5.00;;;3.70;;
51814;SDS011;37874;53.158;6.766;2023-05-07T04:47:40;5.50;;;3.60;;
51814;SDS011;37874;53.158;6.766;2023-05-07T04:50:08;5.32;;;3.83;;
51814;SDS011;37874;53.158;6.766;2023-05-07T04:52:34;5.78;;;4.07;;
51814;SDS011;37874;53.158;6.766;2023-05-07T04:55:00;5.13;;;3.88;;
51814;SDS011;37874;53.158;6.766;2023-05-07T04:57:26;5.95;;;3.88;;
51814;SDS011;37874;53.158;6.766;2023-05-07T04:59:52;4.63;;;3.65;;
51814;SDS011;37874;53.158;6.766;2023-05-07T05:02:18;5.60;;;4.07;;
51814;SDS011;37874;53.158;6.766;2023-05-07T05:04:44;5.18;;;3.72;;
51814;SDS011;37874;53.158;6.766;2023-05-07T05:07:10;5.45;;;3.47;;
51814;SDS011;37874;53.158;6.766;2023-05-07T05:09:35;5.80;;;3.90;;
51814;SDS011;37874;53.158;6.766;2023-05-07T05:12:01;6.03;;;3.97;;
51814;SDS011;37874;53.158;6.766;2023-05-07T05:14:26;5.20;;;3.53;;
51814;SDS011;37874;53.158;6.766;2023-05-07T05:16:52;4.82;;;3.83;;
51814;SDS011;37874;53.158;6.766;2023-05-07T05:19:18;4.97;;;3.78;;
51814;SDS011;37874;53.158;6.766;2023-05-07T05:21:43;4.68;;;3.70;;
51814;SDS011;37874;53.158;6.766;2023-05-07T05:24:09;4.25;;;3.50;;
51814;SDS011;37874;53.158;6.766;2023-05-07T05:26:35;5.10;;;3.65;;
51814;SDS011;37874;53.158;6.766;2023-05-07T05:29:00;5.53;;;3.47;;
51814;SDS011;37874;53.158;6.766;2023-05-07T05:31:26;4.40;;;3.22;;
51814;SDS011;37874;53.158;6.766;2023-05-07T05:33:51;4.22;;;3.42;;
51814;SDS011;37874;53.158;6.766;2023-05-07T05:36:17;4.38;;;3.33;;
51814;SDS011;37874;53.158;6.766;2023-05-07T05:38:43;4.63;;;3.53;;
51814;SDS011;37874;53.158;6.766;2023-05-07T05:41:09;4.10;;;3.25;;
51814;SDS011;37874;53.158;6.766;2023-05-07T05:43:35;4.18;;;3.40;;
51814;SDS011;37874;53.158;6.766;2023-05-07T05:46:01;4.40;;;3.10;;
51814;SDS011;37874;53.158;6.766;2023-05-07T05:48:26;4.38;;;3.50;;
51814;SDS011;37874;53.158;6.766;2023-05-07T05:50:53;4.32;;;3.50;;
51814;SDS011;37874;53.158;6.766;2023-05-07T05:53:19;4.95;;;3.30;;
51814;SDS011;37874;53.158;6.766;2023-05-07T05:55:44;4.13;;;3.30;;
51814;SDS011;37874;53.158;6.766;2023-05-07T05:58:10;5.10;;;3.67;;
51814;SDS011;37874;53.158;6.766;2023-05-07T06:00:36;4.13;;;3.13;;
51814;SDS011;37874;53.158;6.766;2023-05-07T06:03:01;4.20;;;3.40;;
51814;SDS011;37874;53.158;6.766;2023-05-07T06:05:27;4.70;;;3.22;;
51814;SDS011;37874;53.158;6.766;2023-05-07T06:07:53;4.53;;;3.40;;
51814;SDS011;37874;53.158;6.766;2023-05-07T06:10:18;4.45;;;3.47;;
51814;SDS011;37874;53.158;6.766;2023-05-07T06:12:44;4.03;;;3.10;;
51814;SDS011;37874;53.158;6.766;2023-05-07T06:15:09;4.82;;;3.30;;
51814;SDS011;37874;53.158;6.766;2023-05-07T06:17:35;5.05;;;3.28;;
51814;SDS011;37874;53.158;6.766;2023-05-07T06:20:01;4.32;;;3.35;;
51814;SDS011;37874;53.158;6.766;2023-05-07T06:22:27;4.40;;;3.22;;
51814;SDS011;37874;53.158;6.766;2023-05-07T06:24:52;3.85;;;2.78;;
51814;SDS011;37874;53.158;6.766;2023-05-07T06:27:18;4.25;;;3.28;;
51814;SDS011;37874;53.158;6.766;2023-05-07T06:29:43;4.90;;;3.35;;
51814;SDS011;37874;53.158;6.766;2023-05-07T06:32:12;3.65;;;2.85;;
51814;SDS011;37874;53.158;6.766;2023-05-07T06:34:39;4.22;;;3.45;;
51814;SDS011;37874;53.158;6.766;2023-05-07T06:37:05;4.20;;;3.00;;
51814;SDS011;37874;53.158;6.766;2023-05-07T06:39:31;3.97;;;3.00;;
51814;SDS011;37874;53.158;6.766;2023-05-07T06:41:58;3.90;;;3.00;;
51814;SDS011;37874;53.158;6.766;2023-05-07T06:44:24;3.92;;;3.13;;
51814;SDS011;37874;53.158;6.766;2023-05-07T06:46:50;3.63;;;2.90;;
51814;SDS011;37874;53.158;6.766;2023-05-07T06:49:15;3.85;;;3.10;;
51814;SDS011;37874;53.158;6.766;2023-05-07T06:51:41;3.83;;;3.10;;
51814;SDS011;37874;53.158;6.766;2023-05-07T06:54:07;4.53;;;3.03;;
51814;SDS011;37874;53.158;6.766;2023-05-07T06:56:33;4.53;;;3.10;;
51814;SDS011;37874;53.158;6.766;2023-05-07T06:59:00;4.75;;;3.42;;
51814;SDS011;37874;53.158;6.766;2023-05-07T07:01:26;3.60;;;2.80;;
51814;SDS011;37874;53.158;6.766;2023-05-07T07:03:52;4.65;;;3.28;;
51814;SDS011;37874;53.158;6.766;2023-05-07T07:06:17;4.13;;;3.30;;
51814;SDS011;37874;53.158;6.766;2023-05-07T07:08:43;3.83;;;3.00;;
51814;SDS011;37874;53.158;6.766;2023-05-07T07:11:09;4.35;;;3.17;;
51814;SDS011;37874;53.158;6.766;2023-05-07T07:13:35;5.22;;;3.13;;
51814;SDS011;37874;53.158;6.766;2023-05-07T07:16:01;3.83;;;3.25;;
51814;SDS011;37874;53.158;6.766;2023-05-07T07:18:26;3.65;;;2.90;;
51814;SDS011;37874;53.158;6.766;2023-05-07T07:20:52;4.05;;;3.15;;
51814;SDS011;37874;53.158;6.766;2023-05-07T07:23:18;4.53;;;3.25;;
51814;SDS011;37874;53.158;6.766;2023-05-07T07:25:43;4.15;;;3.17;;
51814;SDS011;37874;53.158;6.766;2023-05-07T07:28:09;4.10;;;3.10;;
51814;SDS011;37874;53.158;6.766;2023-05-07T07:30:36;4.15;;;3.35;;
51814;SDS011;37874;53.158;6.766;2023-05-07T07:33:02;4.32;;;3.47;;
51814;SDS011;37874;53.158;6.766;2023-05-07T07:35:31;3.90;;;2.85;;
51814;SDS011;37874;53.158;6.766;2023-05-07T07:37:57;4.82;;;3.45;;
51814;SDS011;37874;53.158;6.766;2023-05-07T07:40:23;5.00;;;3.50;;
51814;SDS011;37874;53.158;6.766;2023-05-07T07:42:49;4.20;;;3.15;;
51814;SDS011;37874;53.158;6.766;2023-05-07T09:43:10;4.28;;;2.90;;
51814;SDS011;37874;53.158;6.766;2023-05-07T09:45:37;4.47;;;2.92;;
51814;SDS011;37874;53.158;6.766;2023-05-07T09:48:04;3.70;;;2.90;;
51814;SDS011;37874;53.158;6.766;2023-05-07T09:50:35;3.97;;;2.95;;
51814;SDS011;37874;53.158;6.766;2023-05-07T09:53:05;3.70;;;2.77;;
51814;SDS011;37874;53.158;6.766;2023-05-07T09:55:31;4.28;;;2.95;;
51814;SDS011;37874;53.158;6.766;2023-05-07T09:57:57;3.85;;;2.55;;
51814;SDS011;37874;53.158;6.766;2023-05-07T10:00:24;4.25;;;3.08;;
51814;SDS011;37874;53.158;6.766;2023-05-07T10:02:52;4.10;;;2.97;;
51814;SDS011;37874;53.158;6.766;2023-05-07T10:05:18;3.67;;;2.85;;
51814;SDS011;37874;53.158;6.766;2023-05-07T10:07:48;4.55;;;3.10;;
51814;SDS011;37874;53.158;6.766;2023-05-07T10:10:14;3.03;;;2.35;;
51814;SDS011;37874;53.158;6.766;2023-05-07T10:12:42;4.30;;;2.88;;
51814;SDS011;37874;53.158;6.766;2023-05-07T10:15:11;3.22;;;2.50;;
51814;SDS011;37874;53.158;6.766;2023-05-07T10:17:40;4.30;;;2.70;;
51814;SDS011;37874;53.158;6.766;2023-05-07T10:20:07;3.70;;;2.80;;
51814;SDS011;37874;53.158;6.766;2023-05-07T10:22:43;4.03;;;2.80;;
51814;SDS011;37874;53.158;6.766;2023-05-07T10:25:15;4.07;;;2.60;;
51814;SDS011;37874;53.158;6.766;2023-05-07T10:27:51;4.00;;;2.92;;
51814;SDS011;37874;53.158;6.766;2023-05-07T10:30:26;3.90;;;2.83;;
51814;SDS011;37874;53.158;6.766;2023-05-07T10:33:08;3.88;;;2.40;;
51814;SDS011;37874;53.158;6.766;2023-05-07T10:35:38;3.50;;;2.38;;
51814;SDS011;37874;53.158;6.766;2023-05-07T10:38:08;3.80;;;2.78;;
51814;SDS011;37874;53.158;6.766;2023-05-07T10:40:35;2.83;;;2.35;;
51814;SDS011;37874;53.158;6.766;2023-05-07T10:43:02;3.33;;;2.40;;
51814;SDS011;37874;53.158;6.766;2023-05-07T10:45:32;4.22;;;2.70;;
51814;SDS011;37874;53.158;6.766;2023-05-07T10:50:40;3.63;;;2.55;;
51814;SDS011;37874;53.158;6.766;2023-05-07T10:55:42;3.70;;;2.70;;
51814;SDS011;37874;53.158;6.766;2023-05-07T10:58:34;4.00;;;2.80;;
51814;SDS011;37874;53.158;6.766;2023-05-07T11:01:02;3.30;;;2.50;;
51814;SDS011;37874;53.158;6.766;2023-05-07T11:03:28;3.83;;;2.55;;
51814;SDS011;37874;53.158;6.766;2023-05-07T11:11:17;3.35;;;2.20;;
51814;SDS011;37874;53.158;6.766;2023-05-07T11:13:43;3.70;;;2.30;;
51814;SDS011;37874;53.158;6.766;2023-05-07T11:16:16;3.92;;;2.47;;
51814;SDS011;37874;53.158;6.766;2023-05-07T11:18:51;3.50;;;2.38;;
51814;SDS011;37874;53.158;6.766;2023-05-07T11:24:04;3.67;;;2.42;;
51814;SDS011;37874;53.158;6.766;2023-05-07T11:26:31;3.67;;;2.42;;
51814;SDS011;37874;53.158;6.766;2023-05-07T11:31:41;3.10;;;2.38;;
51814;SDS011;37874;53.158;6.766;2023-05-07T11:34:07;3.67;;;2.67;;
51814;SDS011;37874;53.158;6.766;2023-05-07T11:36:33;3.45;;;2.20;;
51814;SDS011;37874;53.158;6.766;2023-05-07T11:38:59;2.97;;;2.28;;
51814;SDS011;37874;53.158;6.766;2023-05-07T11:41:35;4.00;;;2.53;;
51814;SDS011;37874;53.158;6.766;2023-05-07T11:44:02;3.00;;;2.20;;
51814;SDS011;37874;53.158;6.766;2023-05-07T11:46:28;3.33;;;2.40;;
51814;SDS011;37874;53.158;6.766;2023-05-07T11:48:54;2.90;;;2.20;;
51814;SDS011;37874;53.158;6.766;2023-05-07T11:51:20;3.35;;;2.10;;
51814;SDS011;37874;53.158;6.766;2023-05-07T11:53:48;2.75;;;1.92;;
51814;SDS011;37874;53.158;6.766;2023-05-07T11:56:14;2.60;;;1.90;;
51814;SDS011;37874;53.158;6.766;2023-05-07T11:58:43;2.90;;;2.00;;
51814;SDS011;37874;53.158;6.766;2023-05-07T12:01:11;2.90;;;2.20;;
51814;SDS011;37874;53.158;6.766;2023-05-07T12:03:39;3.25;;;1.83;;
51814;SDS011;37874;53.158;6.766;2023-05-07T12:06:10;3.30;;;1.98;;
51814;SDS011;37874;53.158;6.766;2023-05-07T12:08:37;3.03;;;1.85;;
51814;SDS011;37874;53.158;6.766;2023-05-07T12:11:06;4.00;;;1.95;;
51814;SDS011;37874;53.158;6.766;2023-05-07T12:13:34;3.00;;;1.77;;
51814;SDS011;37874;53.158;6.766;2023-05-07T12:16:00;2.72;;;1.83;;
51814;SDS011;37874;53.158;6.766;2023-05-07T12:18:28;3.05;;;2.10;;
51814;SDS011;37874;53.158;6.766;2023-05-07T12:20:54;2.50;;;1.90;;
51814;SDS011;37874;53.158;6.766;2023-05-07T12:23:21;3.63;;;2.20;;
51814;SDS011;37874;53.158;6.766;2023-05-07T12:25:47;2.90;;;2.03;;
51814;SDS011;37874;53.158;6.766;2023-05-07T12:28:13;2.53;;;1.83;;
51814;SDS011;37874;53.158;6.766;2023-05-07T12:30:40;3.38;;;2.25;;
51814;SDS011;37874;53.158;6.766;2023-05-07T12:33:08;2.90;;;1.77;;
51814;SDS011;37874;53.158;6.766;2023-05-07T12:35:37;2.75;;;1.90;;
51814;SDS011;37874;53.158;6.766;2023-05-07T12:38:08;2.30;;;1.65;;
51814;SDS011;37874;53.158;6.766;2023-05-07T12:40:42;3.00;;;2.00;;
51814;SDS011;37874;53.158;6.766;2023-05-07T12:43:25;2.63;;;1.77;;
51814;SDS011;37874;53.158;6.766;2023-05-07T12:45:56;3.38;;;1.67;;
51814;SDS011;37874;53.158;6.766;2023-05-07T12:48:24;2.90;;;1.77;;
51814;SDS011;37874;53.158;6.766;2023-05-07T12:50:55;3.55;;;1.70;;
51814;SDS011;37874;53.158;6.766;2023-05-07T12:53:23;3.05;;;1.73;;
51814;SDS011;37874;53.158;6.766;2023-05-07T12:55:51;2.13;;;1.58;;
51814;SDS011;37874;53.158;6.766;2023-05-07T12:58:25;2.92;;;1.73;;
51814;SDS011;37874;53.158;6.766;2023-05-07T13:00:53;2.67;;;1.90;;
51814;SDS011;37874;53.158;6.766;2023-05-07T13:03:27;2.20;;;1.50;;
51814;SDS011;37874;53.158;6.766;2023-05-07T13:05:57;2.72;;;1.70;;
51814;SDS011;37874;53.158;6.766;2023-05-07T13:08:29;2.70;;;1.63;;
51814;SDS011;37874;53.158;6.766;2023-05-07T13:10:56;3.22;;;1.75;;
51814;SDS011;37874;53.158;6.766;2023-05-07T13:13:23;2.67;;;1.70;;
51814;SDS011;37874;53.158;6.766;2023-05-07T13:15:48;3.75;;;1.67;;
51814;SDS011;37874;53.158;6.766;2023-05-07T13:18:14;3.53;;;1.60;;
51814;SDS011;37874;53.158;6.766;2023-05-07T13:20:40;3.78;;;1.42;;
51814;SDS011;37874;53.158;6.766;2023-05-07T13:23:05;2.30;;;1.50;;
51814;SDS011;37874;53.158;6.766;2023-05-07T13:25:31;3.95;;;1.55;;
51814;SDS011;37874;53.158;6.766;2023-05-07T13:27:57;2.25;;;1.50;;
51814;SDS011;37874;53.158;6.766;2023-05-07T13:30:22;2.28;;;1.40;;
51814;SDS011;37874;53.158;6.766;2023-05-07T13:32:48;3.25;;;1.50;;
51814;SDS011;37874;53.158;6.766;2023-05-07T13:35:15;3.28;;;1.42;;
51814;SDS011;37874;53.158;6.766;2023-05-07T13:37:41;1.70;;;1.13;;
51814;SDS011;37874;53.158;6.766;2023-05-07T13:40:07;3.15;;;1.30;;
51814;SDS011;37874;53.158;6.766;2023-05-07T13:42:33;1.92;;;1.30;;
51814;SDS011;37874;53.158;6.766;2023-05-07T13:44:58;2.70;;;1.45;;
51814;SDS011;37874;53.158;6.766;2023-05-07T13:47:24;1.90;;;1.30;;
51814;SDS011;37874;53.158;6.766;2023-05-07T13:49:49;1.70;;;1.27;;
51814;SDS011;37874;53.158;6.766;2023-05-07T13:52:16;2.00;;;1.30;;
51814;SDS011;37874;53.158;6.766;2023-05-07T13:54:41;1.70;;;1.10;;
51814;SDS011;37874;53.158;6.766;2023-05-07T13:57:07;1.98;;;1.30;;
51814;SDS011;37874;53.158;6.766;2023-05-07T13:59:33;2.22;;;1.10;;
51814;SDS011;37874;53.158;6.766;2023-05-07T14:01:59;2.10;;;1.45;;
51814;SDS011;37874;53.158;6.766;2023-05-07T14:04:24;2.53;;;1.45;;
51814;SDS011;37874;53.158;6.766;2023-05-07T14:06:50;2.15;;;1.30;;
51814;SDS011;37874;53.158;6.766;2023-05-07T14:09:16;2.15;;;1.38;;
51814;SDS011;37874;53.158;6.766;2023-05-07T14:11:42;2.60;;;1.35;;
51814;SDS011;37874;53.158;6.766;2023-05-07T14:14:07;2.33;;;1.30;;
51814;SDS011;37874;53.158;6.766;2023-05-07T14:16:35;2.00;;;1.40;;
51814;SDS011;37874;53.158;6.766;2023-05-07T14:19:02;2.28;;;1.20;;
51814;SDS011;37874;53.158;6.766;2023-05-07T14:21:27;1.95;;;1.20;;
51814;SDS011;37874;53.158;6.766;2023-05-07T14:23:53;2.35;;;1.20;;
51814;SDS011;37874;53.158;6.766;2023-05-07T14:26:18;2.50;;;1.27;;
51814;SDS011;37874;53.158;6.766;2023-05-07T14:28:45;1.80;;;1.20;;
51814;SDS011;37874;53.158;6.766;2023-05-07T14:31:11;2.60;;;1.25;;
51814;SDS011;37874;53.158;6.766;2023-05-07T14:33:37;1.85;;;1.10;;
51814;SDS011;37874;53.158;6.766;2023-05-07T14:36:03;2.13;;;1.30;;
51814;SDS011;37874;53.158;6.766;2023-05-07T14:38:29;2.05;;;1.40;;
51814;SDS011;37874;53.158;6.766;2023-05-07T14:40:55;2.88;;;1.00;;
51814;SDS011;37874;53.158;6.766;2023-05-07T14:43:21;2.70;;;1.33;;
51814;SDS011;37874;53.158;6.766;2023-05-07T14:45:47;2.38;;;1.30;;
51814;SDS011;37874;53.158;6.766;2023-05-07T14:48:12;2.22;;;1.30;;
51814;SDS011;37874;53.158;6.766;2023-05-07T14:50:43;2.17;;;1.10;;
51814;SDS011;37874;53.158;6.766;2023-05-07T14:53:08;2.00;;;1.30;;
51814;SDS011;37874;53.158;6.766;2023-05-07T14:55:34;1.73;;;1.13;;
51814;SDS011;37874;53.158;6.766;2023-05-07T14:58:00;2.20;;;1.30;;
51814;SDS011;37874;53.158;6.766;2023-05-07T15:00:26;2.30;;;1.08;;
51814;SDS011;37874;53.158;6.766;2023-05-07T15:02:51;1.75;;;1.20;;
51814;SDS011;37874;53.158;6.766;2023-05-07T15:05:17;2.78;;;1.30;;
51814;SDS011;37874;53.158;6.766;2023-05-07T15:07:44;3.08;;;1.30;;
51814;SDS011;37874;53.158;6.766;2023-05-07T15:10:10;2.75;;;1.50;;
51814;SDS011;37874;53.158;6.766;2023-05-07T15:12:35;2.83;;;1.40;;
51814;SDS011;37874;53.158;6.766;2023-05-07T15:15:01;3.88;;;1.65;;
51814;SDS011;37874;53.158;6.766;2023-05-07T15:17:27;2.13;;;1.20;;
51814;SDS011;37874;53.158;6.766;2023-05-07T15:19:52;3.05;;;1.58;;
51814;SDS011;37874;53.158;6.766;2023-05-07T15:22:18;3.83;;;1.65;;
51814;SDS011;37874;53.158;6.766;2023-05-07T15:24:46;1.75;;;1.30;;
51814;SDS011;37874;53.158;6.766;2023-05-07T15:27:11;2.95;;;1.60;;
51814;SDS011;37874;53.158;6.766;2023-05-07T15:29:37;2.83;;;1.60;;
51814;SDS011;37874;53.158;6.766;2023-05-07T15:32:02;2.53;;;1.35;;
51814;SDS011;37874;53.158;6.766;2023-05-07T15:34:28;2.13;;;1.27;;
51814;SDS011;37874;53.158;6.766;2023-05-07T15:36:55;3.63;;;1.73;;
51814;SDS011;37874;53.158;6.766;2023-05-07T15:39:22;2.63;;;1.40;;
51814;SDS011;37874;53.158;6.766;2023-05-07T15:41:47;2.90;;;1.52;;
51814;SDS011;37874;53.158;6.766;2023-05-07T15:44:13;2.40;;;1.52;;
51814;SDS011;37874;53.158;6.766;2023-05-07T15:46:38;3.13;;;1.63;;
51814;SDS011;37874;53.158;6.766;2023-05-07T15:49:04;2.78;;;1.63;;
51814;SDS011;37874;53.158;6.766;2023-05-07T15:51:30;2.38;;;1.48;;
51814;SDS011;37874;53.158;6.766;2023-05-07T15:53:56;1.95;;;1.27;;
51814;SDS011;37874;53.158;6.766;2023-05-07T15:56:22;3.10;;;1.40;;
51814;SDS011;37874;53.158;6.766;2023-05-07T15:58:49;2.50;;;1.55;;
51814;SDS011;37874;53.158;6.766;2023-05-07T16:01:14;2.72;;;1.48;;
51814;SDS011;37874;53.158;6.766;2023-05-07T16:03:40;2.72;;;1.40;;
51814;SDS011;37874;53.158;6.766;2023-05-07T16:06:06;2.17;;;1.55;;
51814;SDS011;37874;53.158;6.766;2023-05-07T16:08:31;2.05;;;1.30;;
51814;SDS011;37874;53.158;6.766;2023-05-07T16:10:57;3.15;;;2.00;;
51814;SDS011;37874;53.158;6.766;2023-05-07T16:13:23;2.45;;;1.48;;
51814;SDS011;37874;53.158;6.766;2023-05-07T16:15:54;2.67;;;1.52;;
51814;SDS011;37874;53.158;6.766;2023-05-07T16:18:20;2.22;;;1.50;;
51814;SDS011;37874;53.158;6.766;2023-05-07T16:20:46;2.35;;;1.45;;
51814;SDS011;37874;53.158;6.766;2023-05-07T16:23:12;3.17;;;1.70;;
51814;SDS011;37874;53.158;6.766;2023-05-07T16:25:38;2.40;;;1.30;;
51814;SDS011;37874;53.158;6.766;2023-05-07T16:28:03;2.30;;;1.45;;
51814;SDS011;37874;53.158;6.766;2023-05-07T16:30:29;2.88;;;1.52;;
51814;SDS011;37874;53.158;6.766;2023-05-07T16:32:55;2.00;;;1.45;;
51814;SDS011;37874;53.158;6.766;2023-05-07T16:35:21;2.80;;;1.60;;
51814;SDS011;37874;53.158;6.766;2023-05-07T16:37:46;2.00;;;1.50;;
51814;SDS011;37874;53.158;6.766;2023-05-07T16:40:12;2.35;;;1.35;;
51814;SDS011;37874;53.158;6.766;2023-05-07T16:42:37;3.35;;;1.73;;
51814;SDS011;37874;53.158;6.766;2023-05-07T16:45:03;3.83;;;1.60;;
51814;SDS011;37874;53.158;6.766;2023-05-07T16:47:29;2.97;;;1.50;;
51814;SDS011;37874;53.158;6.766;2023-05-07T16:49:55;2.20;;;1.35;;
51814;SDS011;37874;53.158;6.766;2023-05-07T16:52:21;3.15;;;1.70;;
51814;SDS011;37874;53.158;6.766;2023-05-07T16:54:46;2.97;;;1.77;;
51814;SDS011;37874;53.158;6.766;2023-05-07T16:57:12;2.60;;;1.60;;
51814;SDS011;37874;53.158;6.766;2023-05-07T16:59:38;2.50;;;1.90;;
51814;SDS011;37874;53.158;6.766;2023-05-07T17:02:03;2.50;;;1.75;;